createdAt,value
2023-05-31T00:00:05.397Z,100101.87
2023-05-31T00:02:35.131Z,100096.03
2023-05-31T00:05:02.650Z,100089.56
2023-05-31T00:07:29.953Z,100101.00
2023-05-31T00:09:57.552Z,100099.78
2023-05-31T00:12:25.044Z,100101.97
2023-05-31T00:14:52.274Z,100098.31
2023-05-31T00:19:49.964Z,100093.81
2023-05-31T00:22:18.186Z,100092.22
2023-05-31T00:24:46.291Z,100097.09
2023-05-31T00:27:13.562Z,100093.94
2023-05-31T00:29:43.197Z,100085.25
2023-05-31T00:32:10.882Z,100085.88
2023-05-31T00:34:38.398Z,100085.63
2023-05-31T00:37:06.025Z,100085.63
2023-05-31T00:39:33.976Z,100093.06
2023-05-31T00:42:14.313Z,100090.22
2023-05-31T00:44:42.651Z,100092.56
2023-05-31T00:47:10.479Z,100082.78
2023-05-31T00:49:37.944Z,100087.84
2023-05-31T00:52:06.228Z,100083.38
2023-05-31T00:54:34.004Z,100079.41
2023-05-31T00:57:02.538Z,100083.09
2023-05-31T00:59:31.051Z,100080.78
2023-05-31T01:02:00.298Z,100074.28
2023-05-31T01:04:28.181Z,100076.69
2023-05-31T01:06:57.422Z,100071.91
2023-05-31T01:09:24.935Z,100086.34
2023-05-31T01:12:11.273Z,100080.69
2023-05-31T01:14:45.277Z,100075.22
2023-05-31T01:17:15.667Z,100083.56
2023-05-31T01:19:51.876Z,100074.63
2023-05-31T01:22:38.427Z,100077.72
2023-05-31T01:25:18.809Z,100082.91
2023-05-31T01:27:46.337Z,100077.81
2023-05-31T01:30:14.072Z,100076.31
2023-05-31T01:32:41.960Z,100066.59
2023-05-31T01:35:10.125Z,100076.31
2023-05-31T01:37:38.100Z,100072.09
2023-05-31T01:40:06.432Z,100074.41
2023-05-31T01:42:34.034Z,100064.69
2023-05-31T01:45:01.686Z,100070.66
2023-05-31T01:47:29.097Z,100065.62
2023-05-31T01:49:56.569Z,100076.88
2023-05-31T01:52:24.186Z,100070.72
2023-05-31T01:54:51.671Z,100061.41
2023-05-31T01:57:19.120Z,100072.38
2023-05-31T01:59:47.040Z,100062.38
2023-05-31T02:02:14.492Z,100065.69
2023-05-31T02:04:42.147Z,100058.72
2023-05-31T02:07:10.664Z,100062.78
2023-05-31T02:09:37.985Z,100064.28
2023-05-31T02:12:05.939Z,100063.72
2023-05-31T02:14:33.177Z,100059.81
2023-05-31T02:17:00.546Z,100069.53
2023-05-31T02:19:30.247Z,100064.66
2023-05-31T02:21:58.072Z,100077.41
2023-05-31T02:24:29.504Z,100074.00
2023-05-31T02:26:56.844Z,100073.41
2023-05-31T02:29:26.024Z,100071.28
2023-05-31T02:31:53.828Z,100075.06
2023-05-31T02:34:22.026Z,100081.44
2023-05-31T02:36:49.689Z,100074.91
2023-05-31T02:39:17.302Z,100077.66
2023-05-31T02:41:44.551Z,100081.59
2023-05-31T02:44:12.089Z,100086.66
2023-05-31T02:46:40.827Z,100089.47
2023-05-31T02:49:08.770Z,100084.09
2023-05-31T02:51:36.372Z,100091.09
2023-05-31T02:54:05.029Z,100083.16
2023-05-31T02:56:32.889Z,100086.22
2023-05-31T02:59:01.420Z,100087.41
2023-05-31T03:01:29.694Z,100089.97
2023-05-31T03:03:58.185Z,100090.03
2023-05-31T03:06:25.900Z,100085.66
2023-05-31T03:08:53.560Z,100088.06
2023-05-31T03:11:21.694Z,100100.81
2023-05-31T03:13:49.023Z,100094.97
2023-05-31T03:16:17.922Z,100104.59
2023-05-31T03:18:45.849Z,100092.03
2023-05-31T03:21:13.451Z,100095.81
2023-05-31T03:23:41.472Z,100097.72
2023-05-31T03:26:09.084Z,100097.22
2023-05-31T03:28:36.937Z,100103.03
2023-05-31T03:31:04.636Z,100104.13
2023-05-31T03:33:32.711Z,100110.44
2023-05-31T03:36:00.109Z,100113.97
2023-05-31T03:38:27.973Z,100106.41
2023-05-31T03:40:55.764Z,100100.59
2023-05-31T03:43:23.480Z,100104.00
2023-05-31T03:45:51.568Z,100101.50
2023-05-31T03:48:19.320Z,100109.22
2023-05-31T03:50:46.650Z,100110.22
2023-05-31T03:53:14.833Z,100103.94
2023-05-31T03:55:42.093Z,100118.31
2023-05-31T03:58:09.372Z,100115.56
2023-05-31T04:00:37.592Z,100117.12
2023-05-31T04:03:05.665Z,100116.53
2023-05-31T04:05:33.383Z,100135.37
2023-05-31T04:08:03.191Z,100127.25
2023-05-31T04:10:31.132Z,100133.09
2023-05-31T04:12:58.443Z,100143.91
2023-05-31T04:15:25.792Z,100128.13
2023-05-31T04:17:53.772Z,100140.41
2023-05-31T04:20:21.346Z,100125.81
2023-05-31T04:22:49.615Z,100137.94
2023-05-31T04:25:18.687Z,100130.25
2023-05-31T04:27:47.006Z,100133.00
2023-05-31T04:30:14.507Z,100133.72
2023-05-31T04:32:42.653Z,100136.25
2023-05-31T04:35:10.370Z,100130.25
2023-05-31T04:37:38.796Z,100134.12
2023-05-31T04:40:10.551Z,100136.41
2023-05-31T04:42:38.428Z,100138.78
2023-05-31T04:45:08.225Z,100133.72
2023-05-31T04:47:36.768Z,100137.06
2023-05-31T04:50:04.482Z,100136.72
2023-05-31T04:52:33.113Z,100141.84
2023-05-31T04:55:01.324Z,100140.78
2023-05-31T04:57:30.682Z,100142.59
2023-05-31T05:00:00.754Z,100141.38
2023-05-31T05:02:30.269Z,100145.19
2023-05-31T05:04:57.916Z,100150.13
2023-05-31T05:07:26.107Z,100154.78
2023-05-31T05:09:53.776Z,100153.25
2023-05-31T05:12:23.351Z,100153.69
2023-05-31T05:14:50.944Z,100159.37
2023-05-31T05:17:18.651Z,100149.06
2023-05-31T05:19:47.398Z,100146.72
2023-05-31T05:22:14.930Z,100154.12
2023-05-31T05:24:42.662Z,100154.38
2023-05-31T05:27:10.343Z,100152.59
2023-05-31T05:29:38.220Z,100148.31
2023-05-31T05:32:06.238Z,100155.03
2023-05-31T05:34:33.728Z,100154.22
2023-05-31T05:37:01.307Z,100155.13
2023-05-31T05:39:29.017Z,100154.69
2023-05-31T05:41:56.356Z,100162.37
2023-05-31T05:44:23.621Z,100162.66
2023-05-31T05:46:51.224Z,100157.94
2023-05-31T05:49:19.919Z,100159.88
2023-05-31T05:51:47.780Z,100161.84
2023-05-31T05:54:15.593Z,100157.78
2023-05-31T05:57:07.514Z,100159.25
2023-05-31T05:59:58.255Z,100161.28
2023-05-31T06:02:41.984Z,100163.44
2023-05-31T06:05:27.938Z,100163.19
2023-05-31T06:08:15.115Z,100165.53
2023-05-31T06:11:04.956Z,100165.84
2023-05-31T06:13:44.201Z,100165.97
2023-05-31T06:16:40.118Z,100167.00
2023-05-31T06:19:19.025Z,100174.22
2023-05-31T06:22:09.997Z,100172.37
2023-05-31T06:24:38.754Z,100173.38
2023-05-31T06:27:22.569Z,100166.75
2023-05-31T06:30:14.289Z,100178.66
2023-05-31T06:33:05.212Z,100178.94
2023-05-31T06:35:52.307Z,100177.25
2023-05-31T06:38:51.442Z,100184.31
2023-05-31T06:41:35.724Z,100176.94
2023-05-31T06:44:28.012Z,100173.22
2023-05-31T06:47:19.191Z,100169.69
2023-05-31T06:50:01.396Z,100163.47
2023-05-31T06:52:44.078Z,100175.06
2023-05-31T06:55:37.284Z,100168.97
2023-05-31T06:58:33.985Z,100177.66
2023-05-31T07:01:30.108Z,100178.06
2023-05-31T07:04:09.221Z,100180.94
2023-05-31T07:07:00.253Z,100185.75
2023-05-31T07:09:39.457Z,100190.00
2023-05-31T07:12:18.629Z,100182.16
2023-05-31T07:15:11.063Z,100187.81
2023-05-31T07:18:03.080Z,100191.06
2023-05-31T07:20:58.228Z,100195.31
2023-05-31T07:23:49.344Z,100193.72
2023-05-31T07:26:28.249Z,100191.25
2023-05-31T07:29:18.982Z,100195.22
2023-05-31T07:31:58.358Z,100199.94
2023-05-31T07:35:03.617Z,100193.94
2023-05-31T07:37:28.216Z,100195.69
2023-05-31T07:40:19.051Z,100189.37
2023-05-31T07:42:58.230Z,100192.84
2023-05-31T07:45:49.448Z,100201.19
2023-05-31T07:48:29.581Z,100189.78
2023-05-31T07:51:09.131Z,100191.31
2023-05-31T07:53:48.359Z,100190.53
2023-05-31T07:56:39.148Z,100180.69
2023-05-31T07:59:19.198Z,100185.87
2023-05-31T08:02:10.003Z,100181.56
2023-05-31T08:05:11.355Z,100185.03
2023-05-31T08:07:50.241Z,100190.50
2023-05-31T08:10:41.090Z,100183.78
2023-05-31T08:13:08.627Z,100185.78
2023-05-31T08:16:00.040Z,100189.19
2023-05-31T08:18:39.337Z,100187.72
2023-05-31T08:21:19.021Z,100174.41
2023-05-31T08:23:59.302Z,100182.84
2023-05-31T08:26:51.512Z,100174.31
2023-05-31T08:29:34.671Z,100177.81
2023-05-31T08:32:25.005Z,100180.69
2023-05-31T08:35:04.368Z,100180.97
2023-05-31T08:37:56.404Z,100183.50
2023-05-31T08:40:35.269Z,100189.97
2023-05-31T08:43:17.572Z,100192.38
2023-05-31T08:46:08.750Z,100179.59
2023-05-31T08:48:55.278Z,100184.22
2023-05-31T08:51:46.874Z,100188.91
2023-05-31T08:54:26.303Z,100190.47
2023-05-31T08:57:22.052Z,100174.19
2023-05-31T08:59:51.641Z,100186.00
2023-05-31T09:02:43.138Z,100187.47
2023-05-31T09:05:22.243Z,100175.09
2023-05-31T09:08:02.121Z,100178.75
2023-05-31T09:10:41.786Z,100161.00
2023-05-31T09:13:33.245Z,100169.25
2023-05-31T09:16:12.431Z,100161.38
2023-05-31T09:19:06.475Z,100170.03
2023-05-31T09:21:45.823Z,100163.13
2023-05-31T09:24:37.079Z,100170.03
2023-05-31T09:27:16.208Z,100160.56
2023-05-31T09:30:11.305Z,100170.72
2023-05-31T09:32:54.616Z,100155.13
2023-05-31T09:35:57.206Z,100155.59
2023-05-31T09:38:36.838Z,100160.72
2023-05-31T09:41:28.598Z,100157.62
2023-05-31T09:44:08.807Z,100149.47
2023-05-31T09:47:07.717Z,100157.12
2023-05-31T09:49:46.336Z,100157.50
2023-05-31T09:52:41.850Z,100157.50
2023-05-31T09:55:21.267Z,100158.28
2023-05-31T09:58:12.055Z,100154.75
2023-05-31T10:00:51.272Z,100155.22
2023-05-31T10:03:51.211Z,100156.28
2023-05-31T10:06:30.330Z,100148.44
2023-05-31T10:09:21.347Z,100144.28
2023-05-31T10:12:00.256Z,100150.84
2023-05-31T10:14:53.522Z,100148.44
2023-05-31T10:17:39.759Z,100145.22
2023-05-31T10:20:34.131Z,100143.34
2023-05-31T10:23:19.455Z,100138.22
2023-05-31T10:26:10.188Z,100136.66
2023-05-31T10:28:56.818Z,100127.12
2023-05-31T10:31:50.598Z,100139.00
2023-05-31T10:34:29.563Z,100126.06
2023-05-31T10:37:09.123Z,100136.28
2023-05-31T10:39:48.996Z,100140.19
2023-05-31T10:42:34.881Z,100134.84
2023-05-31T10:45:27.771Z,100118.22
2023-05-31T10:48:28.899Z,100118.13
2023-05-31T10:51:08.273Z,100124.75
2023-05-31T10:53:49.624Z,100122.25
2023-05-31T10:56:29.269Z,100121.91
2023-05-31T10:59:18.028Z,100119.56
2023-05-31T11:02:06.650Z,100120.66
2023-05-31T11:04:58.026Z,100119.41
2023-05-31T11:07:41.236Z,100115.66
2023-05-31T11:10:35.410Z,100116.72
2023-05-31T11:13:14.354Z,100112.38
2023-05-31T11:16:06.266Z,100115.09
2023-05-31T11:18:45.257Z,100103.47
2023-05-31T11:21:49.048Z,100102.44
2023-05-31T11:24:35.214Z,100103.06
2023-05-31T11:27:37.070Z,100097.38
2023-05-31T11:30:16.713Z,100087.75
2023-05-31T11:33:19.890Z,100092.00
2023-05-31T11:36:02.618Z,100094.47
2023-05-31T11:38:53.078Z,100098.94
2023-05-31T11:41:32.286Z,100098.81
2023-05-31T11:44:30.477Z,100102.34
2023-05-31T11:47:11.442Z,100101.31
2023-05-31T11:50:03.195Z,100095.16
2023-05-31T11:52:42.432Z,100090.72
2023-05-31T11:55:51.115Z,100094.41
2023-05-31T11:58:44.465Z,100085.75
2023-05-31T12:01:39.246Z,100088.84
2023-05-31T12:04:30.888Z,100092.66
2023-05-31T12:07:11.379Z,100084.50
2023-05-31T12:10:02.056Z,100088.16
2023-05-31T12:12:44.365Z,100078.97
2023-05-31T12:15:35.572Z,100073.81
2023-05-31T12:18:03.928Z,100081.47
2023-05-31T12:20:55.219Z,100071.91
2023-05-31T12:23:34.334Z,100075.41
2023-05-31T12:26:02.497Z,100073.63
2023-05-31T12:28:30.751Z,100067.53
2023-05-31T12:31:39.388Z,100068.97
2023-05-31T12:34:26.867Z,100064.22
2023-05-31T12:37:23.129Z,100072.00
2023-05-31T12:40:28.809Z,100067.50
2023-05-31T12:43:02.922Z,100060.72
2023-05-31T12:45:30.669Z,100054.56
2023-05-31T12:48:02.577Z,100054.06
2023-05-31T12:50:31.718Z,100053.09
2023-05-31T12:53:22.234Z,100050.28
2023-05-31T12:56:11.200Z,100048.50
2023-05-31T12:59:03.717Z,100044.72
2023-05-31T13:01:35.870Z,100038.59
2023-05-31T13:04:15.824Z,100042.19
2023-05-31T13:06:58.825Z,100035.34
2023-05-31T13:09:50.654Z,100030.87
2023-05-31T13:12:41.422Z,100023.97
2023-05-31T13:15:32.369Z,100026.38
2023-05-31T13:18:18.348Z,100022.25
2023-05-31T13:21:09.179Z,100014.34
2023-05-31T13:23:39.293Z,100011.53
2023-05-31T13:26:28.411Z,100013.34
2023-05-31T13:29:19.985Z,100015.94
2023-05-31T13:32:10.706Z,100002.56
2023-05-31T13:34:52.576Z,100008.22
2023-05-31T13:37:30.404Z,100003.81
2023-05-31T13:40:09.833Z,100003.25
2023-05-31T13:42:57.730Z,100009.13
2023-05-31T13:45:40.691Z,100004.03
2023-05-31T13:48:22.380Z,100005.56
2023-05-31T13:51:21.220Z,100002.63
2023-05-31T13:53:49.102Z,100005.94
2023-05-31T13:56:47.155Z,99995.91
2023-05-31T13:59:15.516Z,100001.94
2023-05-31T14:01:57.929Z,99990.84
2023-05-31T14:04:51.241Z,99993.56
2023-05-31T14:07:30.802Z,99988.00
2023-05-31T14:10:23.006Z,99985.31
2023-05-31T14:13:02.338Z,99976.38
2023-05-31T14:15:53.599Z,99981.91
2023-05-31T14:18:33.876Z,99981.34
2023-05-31T14:21:20.083Z,99975.63
2023-05-31T14:23:59.419Z,99975.34
2023-05-31T14:26:50.170Z,99977.22
2023-05-31T14:29:29.381Z,99980.25
2023-05-31T14:32:20.226Z,99972.91
2023-05-31T14:34:59.374Z,99973.38
2023-05-31T14:37:56.206Z,99972.34
2023-05-31T14:40:29.432Z,99971.78
2023-05-31T14:43:20.228Z,99969.63
2023-05-31T14:45:59.405Z,99977.78
2023-05-31T14:48:50.144Z,99979.09
2023-05-31T14:51:34.552Z,99971.78
2023-05-31T14:54:25.244Z,99970.75
2023-05-31T14:57:04.720Z,99969.69
2023-05-31T14:59:56.109Z,99971.28
2023-05-31T15:02:35.359Z,99968.94
2023-05-31T15:05:28.997Z,99962.94
2023-05-31T15:08:08.371Z,99966.09
2023-05-31T15:11:02.220Z,99972.47
2023-05-31T15:13:41.443Z,99974.28
2023-05-31T15:16:32.399Z,99967.03
2023-05-31T15:19:11.609Z,99973.59
2023-05-31T15:22:05.589Z,99966.81
2023-05-31T15:24:44.482Z,99969.72
2023-05-31T15:27:35.151Z,99966.28
2023-05-31T15:30:14.477Z,99973.03
2023-05-31T15:32:53.798Z,99968.81
2023-05-31T15:35:34.796Z,99968.56
2023-05-31T15:38:17.215Z,99966.56
2023-05-31T15:41:08.196Z,99956.37
2023-05-31T15:43:47.340Z,99957.94
2023-05-31T15:46:43.369Z,99961.41
2023-05-31T15:49:22.519Z,99963.47
2023-05-31T15:52:13.228Z,99953.34
2023-05-31T15:54:52.459Z,99957.47
2023-05-31T15:57:43.212Z,99944.62
2023-05-31T16:00:22.606Z,99944.94
2023-05-31T16:03:15.015Z,99946.03
2023-05-31T16:05:54.518Z,99948.25
2023-05-31T16:08:45.296Z,99936.19
2023-05-31T16:11:25.319Z,99942.28
2023-05-31T16:14:20.165Z,99943.41
2023-05-31T16:17:02.271Z,99944.88
2023-05-31T16:19:53.318Z,99942.06
2023-05-31T16:22:21.188Z,99941.06
2023-05-31T16:24:49.427Z,99945.72
2023-05-31T16:27:17.818Z,99939.47
2023-05-31T16:29:45.187Z,99946.53
2023-05-31T16:32:12.854Z,99944.62
2023-05-31T16:34:52.542Z,99949.69
2023-05-31T16:37:43.170Z,99952.94
2023-05-31T16:40:23.459Z,99949.69
2023-05-31T16:43:14.177Z,99949.88
2023-05-31T16:45:53.339Z,99948.56
2023-05-31T16:48:44.244Z,99957.06
2023-05-31T16:51:23.479Z,99948.72
2023-05-31T16:54:16.990Z,99945.59
2023-05-31T16:56:56.378Z,99947.28
2023-05-31T16:59:51.587Z,99953.84
2023-05-31T17:02:31.759Z,99955.31
2023-05-31T17:05:23.145Z,99951.53
2023-05-31T17:08:02.304Z,99952.94
2023-05-31T17:10:53.191Z,99957.19
2023-05-31T17:13:32.460Z,99951.88
2023-05-31T17:16:15.357Z,99946.94
2023-05-31T17:19:06.214Z,99946.25
2023-05-31T17:21:45.592Z,99951.12
2023-05-31T17:24:36.252Z,99957.91
2023-05-31T17:27:15.510Z,99953.50
2023-05-31T17:30:06.583Z,99952.63
2023-05-31T17:32:46.886Z,99953.00
2023-05-31T17:35:38.446Z,99953.72
2023-05-31T17:38:18.226Z,99953.91
2023-05-31T17:40:57.695Z,99955.31
2023-05-31T17:43:36.489Z,99955.81
2023-05-31T17:46:27.740Z,99959.38
2023-05-31T17:49:07.639Z,99961.97
2023-05-31T17:51:58.249Z,99957.09
2023-05-31T17:54:37.433Z,99966.03
2023-05-31T17:57:29.445Z,99962.00
2023-05-31T18:00:15.109Z,99966.56
2023-05-31T18:06:30.207Z,99973.53
2023-05-31T18:09:21.425Z,99972.75
2023-05-31T18:12:00.623Z,99972.22
2023-05-31T18:14:51.538Z,99974.09
2023-05-31T18:17:33.414Z,99976.31
2023-05-31T18:20:24.437Z,99980.16
2023-05-31T18:23:03.663Z,99973.88
2023-05-31T18:25:55.942Z,99976.25
2023-05-31T18:28:35.714Z,99982.34
2023-05-31T18:31:31.626Z,99981.69
2023-05-31T18:34:10.596Z,99982.84
2023-05-31T18:37:10.572Z,99980.44
2023-05-31T18:39:49.811Z,99982.28
2023-05-31T18:42:32.171Z,99988.16
2023-05-31T18:45:13.631Z,99990.12
2023-05-31T18:47:53.930Z,100001.44
2023-05-31T18:50:33.873Z,100001.56
2023-05-31T18:53:26.880Z,100003.06
2023-05-31T18:56:06.640Z,100005.84
2023-05-31T18:59:06.187Z,100006.50
2023-05-31T19:01:48.443Z,100018.31
2023-05-31T19:04:39.404Z,100011.75
2023-05-31T19:07:18.692Z,100018.81
2023-05-31T19:10:09.812Z,100025.00
2023-05-31T19:12:52.301Z,100026.25
2023-05-31T19:15:43.578Z,100023.91
2023-05-31T19:18:18.944Z,100036.47
2023-05-31T19:20:51.695Z,100034.22
2023-05-31T19:27:35.471Z,100034.38
2023-05-31T19:30:31.351Z,100030.44
2023-05-31T19:33:04.017Z,100040.13
2023-05-31T19:36:03.826Z,100045.59
2023-05-31T19:38:44.904Z,100044.91
2023-05-31T19:41:37.369Z,100049.91
2023-05-31T19:44:19.466Z,100053.06
2023-05-31T19:47:10.225Z,100051.03
2023-05-31T19:49:49.490Z,100055.13
2023-05-31T19:52:41.278Z,100055.94
2023-05-31T19:55:20.864Z,100052.75
2023-05-31T19:58:12.311Z,100057.59
2023-05-31T20:00:51.522Z,100058.88
2023-05-31T20:03:42.434Z,100060.56
2023-05-31T20:06:21.505Z,100064.44
2023-05-31T20:09:12.895Z,100061.16
2023-05-31T20:11:51.640Z,100064.03
2023-05-31T20:14:45.287Z,100063.47
2023-05-31T20:17:24.571Z,100058.91
2023-05-31T20:20:15.396Z,100055.38
2023-05-31T20:22:57.289Z,100053.94
2023-05-31T20:25:39.745Z,100058.19
2023-05-31T20:28:31.509Z,100058.94
2023-05-31T20:31:10.753Z,100063.75
2023-05-31T20:34:03.593Z,100064.91
2023-05-31T20:36:42.635Z,100064.00
2023-05-31T20:39:21.852Z,100067.44
2023-05-31T20:42:01.673Z,100063.16
2023-05-31T20:44:52.310Z,100066.94
2023-05-31T20:47:31.906Z,100065.62
2023-05-31T20:50:23.304Z,100071.00
2023-05-31T20:53:02.630Z,100071.34
2023-05-31T20:55:54.262Z,100066.94
2023-05-31T20:58:33.445Z,100074.25
2023-05-31T21:01:17.584Z,100071.25
2023-05-31T21:03:58.353Z,100070.09
2023-05-31T21:06:49.398Z,100074.19
2023-05-31T21:09:31.349Z,100069.47
2023-05-31T21:12:22.552Z,100064.81
2023-05-31T21:15:01.658Z,100063.50
2023-05-31T21:17:52.269Z,100072.53
2023-05-31T21:20:31.862Z,100066.50
2023-05-31T21:23:23.264Z,100072.00
2023-05-31T21:26:02.924Z,100062.62
2023-05-31T21:28:54.219Z,100075.16
2023-05-31T21:31:27.622Z,100073.94
2023-05-31T21:33:55.706Z,100073.06
2023-05-31T21:36:22.998Z,100075.16
2023-05-31T21:38:53.956Z,100075.56
2023-05-31T21:41:22.167Z,100069.78
2023-05-31T21:43:49.569Z,100072.81
2023-05-31T21:46:16.900Z,100074.37
2023-05-31T21:48:44.550Z,100075.63
2023-05-31T21:51:11.996Z,100074.31
2023-05-31T21:53:39.232Z,100078.13
2023-05-31T21:56:06.951Z,100071.06
2023-05-31T21:58:34.442Z,100081.31
2023-05-31T22:01:02.068Z,100087.94
2023-05-31T22:03:30.162Z,100077.06
2023-05-31T22:05:57.642Z,100080.09
2023-05-31T22:08:25.023Z,100082.09
2023-05-31T22:10:52.716Z,100079.41
2023-05-31T22:13:20.044Z,100085.03
2023-05-31T22:15:51.649Z,100087.16
2023-05-31T22:18:21.478Z,100087.25
2023-05-31T22:20:54.154Z,100093.66
2023-05-31T22:23:22.817Z,100083.16
2023-05-31T22:25:50.840Z,100094.59
2023-05-31T22:28:18.454Z,100096.81
2023-05-31T22:30:46.121Z,100089.78
2023-05-31T22:33:13.440Z,100086.72
2023-05-31T22:35:40.976Z,100083.06
2023-05-31T22:38:08.682Z,100093.06
2023-05-31T22:40:37.721Z,100090.75
2023-05-31T22:43:05.354Z,100088.69
2023-05-31T22:45:32.996Z,100095.25
2023-05-31T22:48:00.657Z,100093.91
2023-05-31T22:50:28.496Z,100098.31
2023-05-31T22:52:56.450Z,100099.53
2023-05-31T22:55:24.112Z,100098.19
2023-05-31T22:57:52.312Z,100103.94
2023-05-31T23:00:21.306Z,100111.37
2023-05-31T23:02:48.677Z,100106.00
2023-05-31T23:05:16.540Z,100103.69
2023-05-31T23:07:47.825Z,100099.03
2023-05-31T23:10:16.130Z,100101.22
2023-05-31T23:12:44.521Z,100095.75
2023-05-31T23:15:12.365Z,100097.09
2023-05-31T23:17:41.736Z,100091.50
2023-05-31T23:20:13.723Z,100087.34
2023-05-31T23:22:41.268Z,100084.63
2023-05-31T23:25:10.292Z,100085.88
2023-05-31T23:27:41.113Z,100085.88
2023-05-31T23:30:09.436Z,100081.44
2023-05-31T23:32:37.617Z,100083.69
2023-05-31T23:35:05.568Z,100080.38
2023-05-31T23:37:33.134Z,100081.44
2023-05-31T23:40:01.617Z,100080.47
2023-05-31T23:42:29.382Z,100074.37
2023-05-31T23:44:56.865Z,100081.09
2023-05-31T23:47:24.931Z,100082.47
2023-05-31T23:49:52.304Z,100081.59
2023-05-31T23:52:19.852Z,100078.28
2023-05-31T23:54:48.508Z,100085.47
2023-05-31T23:57:16.094Z,100082.69
2023-05-31T23:59:44.869Z,100076.88
